Time;durP1;ratioP1;P1;durP2;ratioP2;P2;SDS_P1;SDS_P2;PMS_P1;PMS_P2;Temp;Humidity;BMP_temperature;BMP_pressure;BME280_temperature;BME280_humidity;BME280_pressure;Samples;Min_cycle;Max_cycle;Signal;HPM_P1;HPM_P2
2022/12/23 00:01:41;;;;;;;7.18;5.40;;;;;16.20;100084.00;;;;5070614;28;20199;-79
2022/12/23 00:04:09;;;;;;;5.63;4.40;;;;;16.20;100077.00;;;;5076080;28;20582;-79
2022/12/23 00:06:37;;;;;;;7.25;4.95;;;;;16.20;100085.00;;;;5089508;28;20211;-79
2022/12/23 00:09:05;;;;;;;7.38;4.88;;;;;16.20;100087.00;;;;5083555;28;20205;-79
2022/12/23 00:11:32;;;;;;;8.25;5.30;;;;;16.20;100092.00;;;;5072000;28;20202;-79
2022/12/23 00:16:44;;;;;;;6.85;4.82;;;;;16.20;100107.00;;;;5082938;28;20197;-78
2022/12/23 00:19:11;;;;;;;8.88;4.53;;;;;16.20;100103.00;;;;5086773;28;20210;-78
2022/12/23 00:21:40;;;;;;;5.78;4.38;;;;;16.20;100108.00;;;;5069835;28;20206;-78
2022/12/23 00:24:07;;;;;;;7.30;5.57;;;;;16.20;100112.00;;;;5082665;28;20223;-78
2022/12/23 00:26:35;;;;;;;10.70;6.45;;;;;16.20;100115.00;;;;5072222;28;20191;-79
2022/12/23 00:29:02;;;;;;;9.02;6.78;;;;;16.20;100122.00;;;;5089647;28;20205;-78
2022/12/23 00:31:29;;;;;;;7.63;5.82;;;;;16.20;100124.00;;;;5089813;28;20221;-78
2022/12/23 00:33:57;;;;;;;12.95;7.30;;;;;16.20;100129.00;;;;5088208;28;20206;-78
2022/12/23 00:36:26;;;;;;;12.05;6.47;;;;;16.20;100127.00;;;;5082285;28;20592;-78
2022/12/23 00:44:26;;;;;;;7.57;5.65;;;;;16.20;100124.00;;;;5089180;28;20703;-78
2022/12/23 00:46:55;;;;;;;7.85;5.75;;;;;16.20;100128.00;;;;5088143;28;20202;-78
2022/12/23 00:52:10;;;;;;;8.30;5.18;;;;;16.20;100134.00;;;;5070413;28;20212;-79
2022/12/23 00:54:38;;;;;;;9.48;5.75;;;;;16.20;100136.00;;;;5069343;28;20199;-79
2022/12/23 00:57:06;;;;;;;10.18;6.03;;;;;16.20;100136.00;;;;5089647;28;20210;-79
2022/12/23 00:59:34;;;;;;;6.60;5.32;;;;;16.20;100147.00;;;;5078319;28;20221;-78
2022/12/23 01:07:31;;;;;;;7.45;5.45;;;;;16.20;100142.00;;;;5074713;28;20230;-79
2022/12/23 01:09:59;;;;;;;9.93;6.35;;;;;16.20;100140.00;;;;5070767;28;20198;-78
2022/12/23 01:12:27;;;;;;;11.00;6.53;;;;;16.20;100147.00;;;;5070313;28;20198;-78
2022/12/23 01:14:54;;;;;;;9.10;6.30;;;;;16.20;100149.00;;;;5071104;28;20197;-78
2022/12/23 01:17:21;;;;;;;9.55;5.85;;;;;16.20;100147.00;;;;5079197;28;20190;-79
2022/12/23 01:19:49;;;;;;;7.85;5.30;;;;;16.20;100151.00;;;;5083009;28;20225;-79
2022/12/23 01:22:16;;;;;;;7.88;5.28;;;;;16.20;100154.00;;;;5078738;28;20222;-78
2022/12/23 01:24:43;;;;;;;10.43;5.68;;;;;16.20;100152.00;;;;5073983;28;20218;-79
2022/12/23 01:27:12;;;;;;;8.68;5.30;;;;;16.20;100166.00;;;;5068428;28;20199;-78
2022/12/23 01:29:39;;;;;;;9.20;6.32;;;;;16.20;100164.00;;;;5084317;28;20194;-78
2022/12/23 01:32:06;;;;;;;9.55;5.63;;;;;16.20;100171.00;;;;5069797;28;20218;-78
2022/12/23 01:34:34;;;;;;;8.52;6.07;;;;;16.30;100168.00;;;;5085880;28;20575;-78
2022/12/23 01:37:01;;;;;;;9.07;5.75;;;;;16.30;100167.00;;;;5087822;28;20280;-78
2022/12/23 01:39:28;;;;;;;8.52;5.53;;;;;16.30;100169.00;;;;5088586;28;20209;-79
2022/12/23 01:44:54;;;;;;;12.00;6.15;;;;;16.20;100177.00;;;;5088726;28;20220;-78
2022/12/23 01:47:29;;;;;;;7.55;6.05;;;;;16.20;100177.00;;;;5070344;28;20194;-78
2022/12/23 01:50:03;;;;;;;7.32;5.57;;;;;16.20;100184.00;;;;5069760;28;20194;-79
2022/12/23 01:52:34;;;;;;;9.30;5.65;;;;;16.20;100184.00;;;;5082832;28;20205;-78
2022/12/23 01:55:01;;;;;;;10.40;7.05;;;;;16.30;100184.00;;;;5089006;28;20202;-78
2022/12/23 01:57:30;;;;;;;7.95;5.72;;;;;16.20;100197.00;;;;5068546;28;20210;-79
2022/12/23 02:05:30;;;;;;;9.57;6.22;;;;;16.30;100218.00;;;;5082116;28;20245;-79
2022/12/23 02:11:01;;;;;;;10.70;6.28;;;;;16.20;100215.00;;;;5088911;28;20205;-79
2022/12/23 02:13:34;;;;;;;9.13;6.10;;;;;16.20;100217.00;;;;5081518;28;20203;-78
2022/12/23 02:16:17;;;;;;;7.82;5.72;;;;;16.10;100217.00;;;;5068186;28;20652;-78
2022/12/23 02:19:05;;;;;;;8.70;6.32;;;;;16.10;100213.00;;;;5068437;28;20634;-78
2022/12/23 02:21:59;;;;;;;9.88;6.22;;;;;16.00;100223.00;;;;5069044;28;20221;-78
2022/12/23 02:24:58;;;;;;;8.90;5.97;;;;;16.10;100225.00;;;;5078555;28;20227;-79
2022/12/23 02:27:32;;;;;;;6.90;5.13;;;;;16.10;100230.00;;;;5074431;28;20194;-79
2022/12/23 02:30:25;;;;;;;7.85;6.03;;;;;16.00;100220.00;;;;5068122;28;20207;-78
2022/12/23 02:33:36;;;;;;;7.82;5.50;;;;;16.00;100236.00;;;;5069538;28;20199;-79
2022/12/23 02:36:17;;;;;;;8.20;6.57;;;;;16.10;100237.00;;;;5088280;28;20189;-79
2022/12/23 02:38:53;;;;;;;7.50;5.57;;;;;16.10;100243.00;;;;5087112;28;20743;-79
2022/12/23 02:41:28;;;;;;;8.27;5.70;;;;;16.10;100245.00;;;;5068994;28;20202;-79
2022/12/23 02:44:00;;;;;;;7.00;5.50;;;;;16.10;100252.00;;;;5068241;28;20233;-78
2022/12/23 02:46:32;;;;;;;7.18;5.47;;;;;16.00;100258.00;;;;5071004;28;20199;-79
2022/12/23 02:49:07;;;;;;;8.23;5.47;;;;;16.00;100260.00;;;;5085350;28;20209;-78
2022/12/23 02:51:37;;;;;;;7.28;4.63;;;;;16.00;100266.00;;;;5075744;28;20194;-79
2022/12/23 02:54:08;;;;;;;6.75;4.75;;;;;16.00;100269.00;;;;5080818;28;20203;-79
2022/12/23 02:56:39;;;;;;;6.88;4.78;;;;;16.00;100279.00;;;;5069046;28;20195;-78
2022/12/23 02:59:12;;;;;;;6.75;4.68;;;;;16.00;100286.00;;;;5084704;28;20198;-79
2022/12/23 03:01:41;;;;;;;6.18;4.32;;;;;16.00;100284.00;;;;5081028;28;20202;-78
2022/12/23 03:04:09;;;;;;;5.10;3.97;;;;;16.00;100288.00;;;;5071899;28;20572;-78
2022/12/23 03:06:39;;;;;;;4.75;3.20;;;;;16.00;100288.00;;;;5087608;28;20190;-78
2022/12/23 03:09:07;;;;;;;5.53;4.22;;;;;16.00;100281.00;;;;5086600;28;21126;-79
2022/12/23 03:11:45;;;;;;;4.47;3.17;;;;;15.90;100275.00;;;;5079778;28;20204;-79
2022/12/23 03:14:41;;;;;;;6.28;3.80;;;;;15.80;100275.00;;;;5067551;28;20195;-79
2022/12/23 03:17:20;;;;;;;6.32;4.25;;;;;15.90;100281.00;;;;5067900;28;20241;-79
2022/12/23 03:19:53;;;;;;;4.53;3.60;;;;;15.90;100280.00;;;;5077264;28;20225;-79
2022/12/23 03:22:25;;;;;;;6.10;4.35;;;;;16.00;100275.00;;;;5068831;28;20194;-79
2022/12/23 03:25:01;;;;;;;6.97;4.45;;;;;16.00;100267.00;;;;5068260;28;20241;-79
2022/12/23 03:27:35;;;;;;;5.63;3.97;;;;;16.00;100263.00;;;;5067857;28;21072;-79
2022/12/23 03:30:05;;;;;;;5.93;4.03;;;;;16.00;100265.00;;;;5073965;28;20901;-79
2022/12/23 03:32:37;;;;;;;5.88;4.75;;;;;16.00;100267.00;;;;5079433;28;20202;-79
2022/12/23 03:35:10;;;;;;;6.55;4.43;;;;;16.00;100277.00;;;;5069521;28;20195;-79
2022/12/23 03:37:43;;;;;;;6.60;4.22;;;;;16.00;100270.00;;;;5069067;28;20219;-79
2022/12/23 03:40:16;;;;;;;6.30;4.15;;;;;16.00;100271.00;;;;5080956;28;20198;-79
2022/12/23 03:42:49;;;;;;;6.20;4.28;;;;;16.00;100277.00;;;;5086991;28;20186;-79
2022/12/23 03:45:20;;;;;;;7.53;4.47;;;;;16.00;100273.00;;;;5074476;28;20280;-79
2022/12/23 03:47:52;;;;;;;5.75;4.30;;;;;16.00;100276.00;;;;5070164;28;20544;-79
2022/12/23 03:50:24;;;;;;;7.85;4.20;;;;;16.00;100278.00;;;;5088456;28;20221;-79
2022/12/23 03:52:55;;;;;;;6.28;4.30;;;;;16.00;100279.00;;;;5067681;28;20195;-79
2022/12/23 03:55:27;;;;;;;5.93;4.20;;;;;16.00;100276.00;;;;5068254;28;20199;-79
2022/12/23 03:58:02;;;;;;;5.15;4.10;;;;;16.00;100291.00;;;;5067522;28;20207;-79
2022/12/23 04:00:35;;;;;;;6.15;4.40;;;;;16.00;100293.00;;;;5067710;28;20199;-79
2022/12/23 04:03:11;;;;;;;5.82;4.13;;;;;16.00;100288.00;;;;5068146;28;20665;-79
2022/12/23 04:05:41;;;;;;;6.45;4.10;;;;;16.10;100293.00;;;;5074888;28;20231;-80
2022/12/23 04:08:13;;;;;;;7.82;4.60;;;;;16.00;100296.00;;;;5073288;28;20203;-79
2022/12/23 04:10:41;;;;;;;6.03;4.20;;;;;16.10;100297.00;;;;5077701;28;20198;-79
2022/12/23 04:13:08;;;;;;;5.10;4.22;;;;;16.00;100299.00;;;;5089609;28;20205;-80
2022/12/23 04:15:40;;;;;;;6.70;4.35;;;;;16.00;100312.00;;;;5086118;28;20188;-79
2022/12/23 04:18:08;;;;;;;4.90;3.95;;;;;16.00;100309.00;;;;5071266;28;20246;-79
2022/12/23 04:20:36;;;;;;;5.53;3.80;;;;;16.00;100316.00;;;;5069864;28;20202;-79
2022/12/23 04:23:04;;;;;;;5.50;4.15;;;;;16.00;100332.00;;;;5078960;28;20226;-79
2022/12/23 04:25:32;;;;;;;4.95;3.33;;;;;16.00;100320.00;;;;5090940;28;20233;-79
2022/12/23 04:28:00;;;;;;;4.20;3.60;;;;;16.00;100332.00;;;;5071353;28;20399;-79
2022/12/23 04:30:27;;;;;;;3.72;2.92;;;;;15.90;100331.00;;;;5074326;28;20195;-79
2022/12/23 04:32:54;;;;;;;6.90;4.22;;;;;15.90;100320.00;;;;5072805;28;20203;-79
2022/12/23 04:35:22;;;;;;;7.20;3.95;;;;;15.90;100332.00;;;;5070942;28;20205;-79
2022/12/23 04:37:49;;;;;;;5.85;4.07;;;;;15.90;100318.00;;;;5083159;28;20226;-79
2022/12/23 04:40:18;;;;;;;7.03;4.15;;;;;15.90;100313.00;;;;5076446;28;20195;-79
2022/12/23 04:42:45;;;;;;;5.30;4.40;;;;;15.90;100308.00;;;;5076382;28;20579;-79
2022/12/23 04:45:12;;;;;;;5.35;3.78;;;;;15.90;100311.00;;;;5070429;28;20230;-79
2022/12/23 04:47:40;;;;;;;5.22;4.20;;;;;15.90;100316.00;;;;5090269;28;20211;-79
2022/12/23 04:50:13;;;;;;;6.32;4.43;;;;;15.90;100318.00;;;;5090861;28;20218;-79
2022/12/23 04:52:40;;;;;;;7.22;4.18;;;;;15.90;100312.00;;;;5082114;28;20206;-79
2022/12/23 04:55:08;;;;;;;6.32;4.28;;;;;15.90;100305.00;;;;5090192;28;20205;-79
2022/12/23 04:57:37;;;;;;;7.07;4.55;;;;;15.80;100303.00;;;;5072834;28;20217;-79
2022/12/23 05:00:05;;;;;;;5.50;4.38;;;;;15.80;100300.00;;;;5070782;28;20203;-79
2022/12/23 05:02:32;;;;;;;5.30;4.20;;;;;15.80;100295.00;;;;5071105;28;20199;-79
2022/12/23 05:04:59;;;;;;;6.50;4.07;;;;;15.80;100300.00;;;;5070365;28;20215;-79
2022/12/23 05:07:27;;;;;;;6.07;4.30;;;;;15.80;100301.00;;;;5070791;28;20195;-79
2022/12/23 05:09:54;;;;;;;6.38;4.82;;;;;15.80;100304.00;;;;5070309;28;20607;-79
2022/12/23 05:12:21;;;;;;;6.78;5.00;;;;;15.80;100310.00;;;;5069588;28;20205;-79
2022/12/23 05:14:50;;;;;;;6.88;4.93;;;;;15.80;100314.00;;;;5080151;28;20205;-79
2022/12/23 05:17:17;;;;;;;6.15;4.60;;;;;15.80;100315.00;;;;5068767;28;20198;-79
2022/12/23 05:19:44;;;;;;;7.13;4.72;;;;;15.80;100314.00;;;;5070533;28;20218;-79
2022/12/23 05:22:11;;;;;;;7.82;5.05;;;;;15.80;100318.00;;;;5071271;28;20195;-79
2022/12/23 05:24:39;;;;;;;6.80;4.75;;;;;15.80;100323.00;;;;5072605;28;20225;-79
2022/12/23 05:27:06;;;;;;;7.68;5.15;;;;;15.80;100339.00;;;;5076647;28;20194;-79
2022/12/23 05:29:33;;;;;;;5.85;4.57;;;;;15.80;100340.00;;;;5073031;28;20224;-79
2022/12/23 05:32:02;;;;;;;5.88;4.25;;;;;15.70;100351.00;;;;5082386;28;20430;-79
2022/12/23 05:34:29;;;;;;;5.70;3.90;;;;;15.70;100347.00;;;;5089740;28;20206;-79
2022/12/23 05:36:56;;;;;;;5.90;4.47;;;;;15.70;100352.00;;;;5087787;28;21111;-79
2022/12/23 05:39:24;;;;;;;6.38;4.10;;;;;15.70;100355.00;;;;5089518;28;20198;-79
2022/12/23 05:41:51;;;;;;;6.35;4.57;;;;;15.70;100363.00;;;;5086556;28;20206;-79
2022/12/23 05:44:18;;;;;;;5.90;4.60;;;;;15.70;100359.00;;;;5076242;28;20194;-79
2022/12/23 05:46:45;;;;;;;6.13;4.22;;;;;15.70;100355.00;;;;5079062;28;20226;-80
2022/12/23 05:49:14;;;;;;;5.63;4.32;;;;;15.60;100359.00;;;;5068352;28;20198;-80
2022/12/23 05:51:41;;;;;;;6.80;4.10;;;;;15.70;100359.00;;;;5073933;28;20194;-79
2022/12/23 05:54:08;;;;;;;5.22;4.03;;;;;15.70;100364.00;;;;5078025;28;20202;-80
2022/12/23 05:56:36;;;;;;;4.85;3.60;;;;;15.70;100357.00;;;;5085939;28;20199;-79
2022/12/23 05:59:03;;;;;;;5.97;4.32;;;;;15.70;100356.00;;;;5088235;28;20198;-79
2022/12/23 06:01:30;;;;;;;4.50;3.75;;;;;15.70;100349.00;;;;5075732;28;20191;-79
2022/12/23 06:03:57;;;;;;;6.07;4.22;;;;;15.70;100349.00;;;;5082466;28;20206;-79
2022/12/23 06:06:26;;;;;;;5.28;4.13;;;;;15.70;100338.00;;;;5067950;28;20230;-79
2022/12/23 06:08:53;;;;;;;5.13;3.97;;;;;15.70;100347.00;;;;5068376;28;20199;-79
2022/12/23 06:11:20;;;;;;;5.97;4.25;;;;;15.70;100338.00;;;;5068566;28;20207;-79
2022/12/23 06:13:48;;;;;;;5.70;4.07;;;;;15.70;100342.00;;;;5068310;28;20197;-80
2022/12/23 06:16:15;;;;;;;5.88;4.25;;;;;15.70;100338.00;;;;5068001;28;20198;-79
2022/12/23 06:18:42;;;;;;;5.53;4.43;;;;;15.70;100335.00;;;;5085464;28;20218;-79
2022/12/23 06:21:10;;;;;;;5.75;4.53;;;;;15.70;100333.00;;;;5072893;28;20198;-79
2022/12/23 06:23:38;;;;;;;5.05;3.85;;;;;15.70;100324.00;;;;5067516;28;20210;-79
2022/12/23 06:26:06;;;;;;;5.72;4.15;;;;;15.80;100319.00;;;;5068182;28;20223;-80
2022/12/23 06:28:33;;;;;;;5.85;4.38;;;;;15.80;100323.00;;;;5082585;28;20945;-80
2022/12/23 06:31:00;;;;;;;5.30;3.97;;;;;15.80;100326.00;;;;5077168;28;20597;-80
2022/12/23 06:33:27;;;;;;;8.25;4.22;;;;;15.80;100325.00;;;;5071379;28;20194;-79
2022/12/23 06:35:55;;;;;;;11.35;5.03;;;;;15.80;100326.00;;;;5074118;28;20198;-80
2022/12/23 06:38:22;;;;;;;6.53;5.00;;;;;15.80;100330.00;;;;5077586;28;20230;-80
2022/12/23 06:40:50;;;;;;;6.43;5.13;;;;;15.80;100333.00;;;;5079144;28;20203;-80
2022/12/23 06:43:18;;;;;;;6.63;5.20;;;;;15.80;100336.00;;;;5070992;28;20219;-81
2022/12/23 06:45:48;;;;;;;7.38;4.93;;;;;15.80;100343.00;;;;5074189;28;20233;-80
2022/12/23 06:48:16;;;;;;;7.53;5.43;;;;;15.80;100345.00;;;;5075595;28;20212;-79
2022/12/23 06:50:43;;;;;;;7.53;4.80;;;;;15.80;100345.00;;;;5067511;28;20195;-80
2022/12/23 06:53:10;;;;;;;6.97;5.32;;;;;15.80;100350.00;;;;5072896;28;20289;-79
2022/12/23 06:55:38;;;;;;;6.35;4.85;;;;;15.80;100357.00;;;;5073927;28;20191;-80
2022/12/23 06:58:07;;;;;;;6.50;5.00;;;;;15.80;100365.00;;;;5083360;28;20580;-78
2022/12/23 07:00:34;;;;;;;7.30;5.50;;;;;15.80;100361.00;;;;5087820;28;20588;-76
2022/12/23 07:03:01;;;;;;;7.15;5.32;;;;;15.80;100361.00;;;;5068857;28;20205;-79
2022/12/23 07:05:29;;;;;;;6.80;5.30;;;;;15.80;100367.00;;;;5075489;28;20218;-78
2022/12/23 07:07:57;;;;;;;5.65;4.57;;;;;15.80;100368.00;;;;5071064;28;20194;-80
2022/12/23 07:10:24;;;;;;;10.63;7.78;;;;;15.70;100371.00;;;;5072490;28;20527;-78
2022/12/23 07:12:51;;;;;;;8.68;6.95;;;;;15.90;100377.00;;;;5072255;28;20194;-78
2022/12/23 07:15:20;;;;;;;11.25;6.32;;;;;15.80;100385.00;;;;5067482;28;20191;-79
2022/12/23 07:17:47;;;;;;;8.85;6.00;;;;;15.80;100383.00;;;;5067681;28;20195;-79
2022/12/23 07:20:15;;;;;;;9.63;5.88;;;;;15.80;100383.00;;;;5070616;28;20225;-79
2022/12/23 07:22:42;;;;;;;9.27;6.32;;;;;15.80;100386.00;;;;5071837;28;20194;-79
2022/12/23 07:25:10;;;;;;;9.27;5.88;;;;;15.80;100389.00;;;;5076520;28;20201;-78
2022/12/23 07:27:37;;;;;;;7.80;5.95;;;;;15.80;100387.00;;;;5087806;28;20225;-79
2022/12/23 07:30:06;;;;;;;8.10;6.38;;;;;15.80;100386.00;;;;5085285;28;20202;-79
2022/12/23 07:32:36;;;;;;;8.05;5.88;;;;;15.80;100395.00;;;;5067294;28;20202;-79
2022/12/23 07:35:03;;;;;;;9.13;6.38;;;;;15.80;100393.00;;;;5068037;28;20191;-78
2022/12/23 07:37:30;;;;;;;8.27;5.40;;;;;15.80;100388.00;;;;5077922;28;20237;-79
2022/12/23 07:39:57;;;;;;;9.32;6.38;;;;;15.80;100377.00;;;;5077769;28;20214;-79
2022/12/23 07:42:25;;;;;;;9.32;6.15;;;;;15.80;100365.00;;;;5072723;28;20678;-79
2022/12/23 07:44:52;;;;;;;8.00;5.72;;;;;15.80;100368.00;;;;5077245;28;20195;-80
2022/12/23 07:47:19;;;;;;;8.52;6.07;;;;;15.80;100362.00;;;;5078912;28;20225;-79
2022/12/23 07:49:48;;;;;;;7.68;5.88;;;;;15.80;100368.00;;;;5081635;28;20195;-79
2022/12/23 07:52:15;;;;;;;7.90;5.88;;;;;15.80;100368.00;;;;5081695;28;20210;-79
2022/12/23 07:54:42;;;;;;;7.10;5.15;;;;;15.80;100353.00;;;;5074798;28;20199;-79
2022/12/23 07:57:10;;;;;;;9.93;6.78;;;;;15.80;100365.00;;;;5074883;28;20190;-78
2022/12/23 07:59:37;;;;;;;9.13;6.65;;;;;15.80;100356.00;;;;5081347;28;20199;-79
2022/12/23 08:02:04;;;;;;;9.50;6.60;;;;;15.80;100366.00;;;;5071103;28;20202;-79
2022/12/23 08:04:31;;;;;;;8.15;5.78;;;;;15.80;100360.00;;;;5078806;28;20194;-79
2022/12/23 08:07:00;;;;;;;7.90;5.63;;;;;15.80;100362.00;;;;5085831;28;20226;-80
2022/12/23 08:09:27;;;;;;;7.00;5.38;;;;;15.80;100367.00;;;;5080962;28;20198;-82
2022/12/23 08:11:55;;;;;;;9.60;5.45;;;;;15.80;100352.00;;;;5071473;28;20263;-81
2022/12/23 08:14:22;;;;;;;8.48;6.15;;;;;15.80;100349.00;;;;5085210;28;20190;-81
2022/12/23 08:16:49;;;;;;;9.40;6.72;;;;;15.80;100357.00;;;;5077764;28;20202;-80
2022/12/23 08:19:17;;;;;;;7.93;5.90;;;;;15.80;100360.00;;;;5082693;28;20711;-81
2022/12/23 08:21:44;;;;;;;7.82;5.82;;;;;15.80;100352.00;;;;5076581;28;20199;-81
2022/12/23 08:24:12;;;;;;;9.20;5.72;;;;;15.80;100350.00;;;;5079290;28;20202;-81
2022/12/23 08:26:40;;;;;;;7.25;5.70;;;;;15.90;100353.00;;;;5078454;28;20703;-80
2022/12/23 08:29:07;;;;;;;7.93;5.75;;;;;15.90;100355.00;;;;5069894;28;20225;-82
2022/12/23 08:31:34;;;;;;;8.80;6.25;;;;;15.90;100343.00;;;;5073323;28;20195;-81
2022/12/23 08:34:02;;;;;;;9.18;6.20;;;;;15.90;100325.00;;;;5070779;28;20210;-81
2022/12/23 08:36:32;;;;;;;9.60;6.75;;;;;15.80;100330.00;;;;5086084;28;20214;-81
2022/12/23 08:39:01;;;;;;;10.43;7.07;;;;;15.90;100334.00;;;;5075360;28;20190;-81
2022/12/23 08:41:31;;;;;;;9.20;6.15;;;;;15.80;100335.00;;;;5073921;28;20202;-81
2022/12/23 08:43:59;;;;;;;7.72;6.32;;;;;15.90;100324.00;;;;5082978;28;20537;-80
2022/12/23 08:46:26;;;;;;;8.00;5.93;;;;;15.90;100333.00;;;;5077788;28;20779;-81
2022/12/23 08:48:54;;;;;;;8.45;6.28;;;;;15.90;100322.00;;;;5083092;28;20664;-81
2022/12/23 08:51:23;;;;;;;9.25;6.45;;;;;15.90;100324.00;;;;5081574;28;20209;-82
2022/12/23 08:53:51;;;;;;;10.63;6.20;;;;;15.90;100320.00;;;;5079781;28;20203;-81
2022/12/23 08:56:20;;;;;;;11.98;7.05;;;;;15.90;100323.00;;;;5069735;28;20206;-81
2022/12/23 08:58:51;;;;;;;8.60;6.18;;;;;15.90;100321.00;;;;5082073;28;20720;-80
2022/12/23 09:01:24;;;;;;;13.15;7.00;;;;;15.90;100317.00;;;;5073563;28;20221;-79
2022/12/23 09:03:52;;;;;;;11.75;7.63;;;;;15.90;100302.00;;;;5075903;28;20574;-79
2022/12/23 09:06:21;;;;;;;10.93;7.13;;;;;15.90;100303.00;;;;5080658;28;20591;-79
2022/12/23 09:08:50;;;;;;;8.55;6.00;;;;;15.90;100299.00;;;;5090543;28;20202;-80
2022/12/23 09:11:19;;;;;;;14.55;6.95;;;;;15.90;100295.00;;;;5087848;28;20206;-80
2022/12/23 09:13:48;;;;;;;14.50;6.93;;;;;15.90;100289.00;;;;5088130;28;20201;-79
2022/12/23 09:16:16;;;;;;;13.05;7.47;;;;;15.90;100285.00;;;;5069877;28;20203;-79
2022/12/23 09:18:43;;;;;;;12.32;7.43;;;;;15.90;100291.00;;;;5086598;28;20210;-80
2022/12/23 09:21:14;;;;;;;12.48;7.00;;;;;15.90;100289.00;;;;5077300;28;20199;-79
2022/12/23 09:23:41;;;;;;;12.32;8.15;;;;;15.90;100287.00;;;;5089492;28;20202;-79
2022/12/23 09:26:10;;;;;;;11.20;7.25;;;;;15.90;100288.00;;;;5083452;28;20285;-80
2022/12/23 09:28:39;;;;;;;12.02;7.45;;;;;16.00;100280.00;;;;5072181;28;20282;-80
2022/12/23 09:31:09;;;;;;;9.75;6.63;;;;;15.90;100281.00;;;;5081379;28;20191;-80
2022/12/23 09:33:37;;;;;;;9.98;6.45;;;;;16.00;100288.00;;;;5089281;28;20197;-80
2022/12/23 09:36:05;;;;;;;10.80;6.35;;;;;16.00;100283.00;;;;5075717;28;20195;-79
2022/12/23 09:38:33;;;;;;;11.82;6.75;;;;;16.00;100277.00;;;;5069687;28;20591;-80
2022/12/23 09:41:12;;;;;;;8.60;5.63;;;;;16.00;100285.00;;;;5082128;28;20205;-79
2022/12/23 09:43:47;;;;;;;10.52;5.50;;;;;16.00;100285.00;;;;5078107;28;20190;-81
2022/12/23 09:46:18;;;;;;;9.57;6.10;;;;;16.00;100285.00;;;;5077602;28;20210;-81
2022/12/23 09:48:52;;;;;;;7.38;5.07;;;;;16.00;100279.00;;;;5070726;28;20195;-81
2022/12/23 09:51:23;;;;;;;7.70;5.30;;;;;16.00;100277.00;;;;5088944;28;20205;-81
2022/12/23 09:53:57;;;;;;;7.47;4.35;;;;;16.00;100261.00;;;;5070153;28;20202;-81
2022/12/23 09:56:31;;;;;;;7.10;5.20;;;;;16.00;100248.00;;;;5076737;28;20202;-81
2022/12/23 09:59:06;;;;;;;7.90;5.38;;;;;16.00;100238.00;;;;5082938;28;20190;-81
2022/12/23 10:01:40;;;;;;;8.77;5.20;;;;;16.10;100229.00;;;;5082868;28;20658;-81
2022/12/23 10:04:37;;;;;;;7.88;4.93;;;;;16.00;100226.00;;;;5067922;28;20203;-79
2022/12/23 10:07:17;;;;;;;8.95;4.90;;;;;16.00;100219.00;;;;5067064;28;20222;-79
2022/12/23 10:09:48;;;;;;;10.80;5.72;;;;;16.10;100218.00;;;;5082766;28;20271;-79
2022/12/23 10:12:23;;;;;;;7.20;4.60;;;;;16.10;100212.00;;;;5075188;28;20192;-79
2022/12/23 10:14:52;;;;;;;7.05;4.45;;;;;16.10;100215.00;;;;5074648;28;20206;-79
2022/12/23 10:17:29;;;;;;;7.55;4.20;;;;;16.10;100214.00;;;;5080654;28;20190;-79
2022/12/23 10:20:00;;;;;;;7.85;5.45;;;;;16.10;100209.00;;;;5068021;28;20221;-79
2022/12/23 10:22:34;;;;;;;7.63;5.13;;;;;16.10;100209.00;;;;5081693;28;20204;-80
2022/12/23 10:25:03;;;;;;;9.00;4.90;;;;;16.20;100197.00;;;;5078586;28;20202;-79
2022/12/23 10:27:34;;;;;;;7.00;4.93;;;;;16.20;100200.00;;;;5069067;28;20703;-80
2022/12/23 10:30:07;;;;;;;7.55;5.45;;;;;16.20;100199.00;;;;5078951;28;20195;-79
2022/12/23 10:32:49;;;;;;;8.15;5.43;;;;;16.10;100199.00;;;;5080515;28;20221;-79
2022/12/23 10:35:39;;;;;;;8.75;5.95;;;;;16.20;100203.00;;;;5069310;28;20217;-79
2022/12/23 10:38:21;;;;;;;10.77;6.05;;;;;16.20;100191.00;;;;5070409;28;20222;-79
2022/12/23 10:40:53;;;;;;;8.77;5.32;;;;;16.20;100196.00;;;;5076835;28;20214;-79
2022/12/23 10:43:29;;;;;;;9.23;5.65;;;;;16.20;100187.00;;;;5072986;28;20203;-80
2022/12/23 10:46:03;;;;;;;9.52;5.43;;;;;16.20;100177.00;;;;5083108;28;20639;-80
2022/12/23 10:48:48;;;;;;;9.02;6.38;;;;;16.20;100172.00;;;;5072803;28;20229;-80
2022/12/23 10:51:21;;;;;;;9.15;7.05;;;;;16.30;100169.00;;;;5071161;28;20206;-80
2022/12/23 10:53:53;;;;;;;10.15;7.20;;;;;16.30;100173.00;;;;5077668;28;20202;-81
2022/12/23 10:56:21;;;;;;;10.65;6.53;;;;;16.30;100175.00;;;;5075570;28;20199;-81
2022/12/23 10:58:54;;;;;;;12.80;6.85;;;;;16.30;100180.00;;;;5077267;28;20230;-81
2022/12/23 11:01:22;;;;;;;11.90;7.53;;;;;16.30;100180.00;;;;5070852;28;20199;-80
2022/12/23 11:03:58;;;;;;;10.77;6.80;;;;;16.30;100175.00;;;;5078039;28;20868;-81
2022/12/23 11:06:26;;;;;;;11.75;7.78;;;;;16.30;100172.00;;;;5079615;28;20225;-80
2022/12/23 11:08:55;;;;;;;11.75;7.10;;;;;16.40;100164.00;;;;5079291;28;20624;-80
2022/12/23 11:11:23;;;;;;;10.57;7.50;;;;;16.40;100157.00;;;;5078271;28;20195;-81
2022/12/23 11:13:50;;;;;;;13.23;6.97;;;;;16.40;100158.00;;;;5067107;28;20950;-80
2022/12/23 11:16:22;;;;;;;12.38;7.70;;;;;16.40;100147.00;;;;5070808;28;20214;-81
2022/12/23 11:18:56;;;;;;;14.43;8.45;;;;;16.30;100152.00;;;;5069627;28;20234;-80
2022/12/23 11:21:24;;;;;;;13.07;8.73;;;;;16.40;100150.00;;;;5071315;28;20193;-81
2022/12/23 11:24:08;;;;;;;14.55;9.98;;;;;16.20;100161.00;;;;5080629;28;20201;-80
2022/12/23 11:26:36;;;;;;;16.85;10.18;;;;;16.40;100160.00;;;;5078486;28;20564;-81
2022/12/23 11:29:09;;;;;;;20.98;11.60;;;;;16.30;100157.00;;;;5073927;28;20762;-80
2022/12/23 11:31:36;;;;;;;22.50;12.18;;;;;16.30;100142.00;;;;5084598;28;20198;-80
2022/12/23 11:34:07;;;;;;;15.65;10.70;;;;;16.30;100127.00;;;;5084262;28;20199;-79
2022/12/23 11:36:35;;;;;;;18.65;12.13;;;;;16.30;100119.00;;;;5078115;28;20222;-80
2022/12/23 11:39:06;;;;;;;17.90;11.18;;;;;16.30;100116.00;;;;5077887;28;20203;-79
2022/12/23 11:41:40;;;;;;;17.65;11.50;;;;;16.20;100106.00;;;;5078692;28;20194;-80
2022/12/23 11:44:17;;;;;;;19.35;10.93;;;;;16.20;100085.00;;;;5076409;28;20199;-81
2022/12/23 11:46:45;;;;;;;16.70;11.35;;;;;16.20;100086.00;;;;5079293;28;20190;-84
2022/12/23 11:49:19;;;;;;;15.93;11.50;;;;;16.20;100075.00;;;;5087162;28;20206;-82
2022/12/23 11:51:48;;;;;;;19.83;11.43;;;;;16.20;100065.00;;;;5083986;28;20202;-82
2022/12/23 11:54:20;;;;;;;20.58;12.32;;;;;16.20;100056.00;;;;5071251;28;20199;-82
2022/12/23 11:56:50;;;;;;;19.85;11.50;;;;;16.20;100053.00;;;;5083687;28;20202;-81
2022/12/23 11:59:32;;;;;;;16.50;10.85;;;;;16.10;100050.00;;;;5077334;28;20202;-81
2022/12/23 12:02:03;;;;;;;18.25;10.50;;;;;16.20;100037.00;;;;5076811;28;20195;-81
2022/12/23 12:04:35;;;;;;;19.42;11.45;;;;;16.20;100031.00;;;;5068874;28;20202;-81
2022/12/23 12:07:05;;;;;;;17.27;10.93;;;;;16.20;100030.00;;;;5071150;28;20195;-81
2022/12/23 12:09:34;;;;;;;20.17;11.20;;;;;16.20;100019.00;;;;5077627;28;20191;-82
2022/12/23 12:12:05;;;;;;;19.30;10.10;;;;;16.20;100027.00;;;;5083835;28;20203;-82
2022/12/23 12:14:37;;;;;;;15.18;10.50;;;;;16.20;100018.00;;;;5081060;28;20656;-82
2022/12/23 12:17:13;;;;;;;14.23;9.82;;;;;16.20;100019.00;;;;5074134;28;20189;-80
2022/12/23 12:19:51;;;;;;;15.18;9.45;;;;;16.20;100019.00;;;;5077535;28;20214;-80
2022/12/23 12:22:26;;;;;;;16.45;10.32;;;;;16.20;100026.00;;;;5085335;28;20209;-80
2022/12/23 12:24:57;;;;;;;16.25;10.35;;;;;16.20;100024.00;;;;5078347;28;20213;-80
2022/12/23 12:27:33;;;;;;;13.13;8.45;;;;;16.20;100014.00;;;;5082231;28;20218;-80
2022/12/23 12:30:04;;;;;;;14.85;9.98;;;;;16.20;100000.00;;;;5069962;28;20195;-80
2022/12/23 12:32:39;;;;;;;15.50;9.27;;;;;16.20;99989.00;;;;5077581;28;20198;-80
2022/12/23 12:35:16;;;;;;;15.75;9.05;;;;;16.20;99967.00;;;;5077604;28;20202;-80
2022/12/23 12:37:48;;;;;;;13.60;9.35;;;;;16.20;99954.00;;;;5075914;28;20222;-80
2022/12/23 12:40:26;;;;;;;12.10;7.95;;;;;16.10;99953.00;;;;5070043;28;20375;-79
2022/12/23 12:42:59;;;;;;;12.05;8.18;;;;;16.10;99958.00;;;;5070574;28;20205;-79
2022/12/23 12:45:33;;;;;;;12.85;7.57;;;;;16.20;99950.00;;;;5070115;28;20195;-80
2022/12/23 12:48:13;;;;;;;9.75;6.70;;;;;16.10;99947.00;;;;5079625;28;20222;-79
2022/12/23 12:50:50;;;;;;;10.80;6.70;;;;;16.10;99935.00;;;;5072696;28;20191;-79